createdAt,value
2022-11-20T00:00:01.713Z,549.00
2022-11-20T00:00:31.796Z,548.00
2022-11-20T00:01:01.870Z,547.00
2022-11-20T00:01:31.956Z,547.00
2022-11-20T00:02:02.077Z,548.00
2022-11-20T00:02:32.143Z,548.00
2022-11-20T00:03:02.216Z,548.00
2022-11-20T00:03:32.297Z,548.00
2022-11-20T00:04:02.378Z,549.00
2022-11-20T00:04:32.460Z,547.00
2022-11-20T00:05:02.575Z,547.00
2022-11-20T00:05:32.698Z,547.00
2022-11-20T00:06:02.812Z,547.00
2022-11-20T00:06:32.815Z,547.00
2022-11-20T00:07:02.877Z,549.00
2022-11-20T00:07:32.907Z,550.00
2022-11-20T00:08:02.904Z,550.00
2022-11-20T00:08:33.028Z,551.00
2022-11-20T00:09:03.023Z,551.00
2022-11-20T00:09:33.164Z,551.00
2022-11-20T00:10:03.142Z,551.00
2022-11-20T00:10:33.255Z,551.00
2022-11-20T00:11:03.368Z,551.00
2022-11-20T00:11:33.382Z,550.00
2022-11-20T00:12:03.368Z,549.00
2022-11-20T00:12:33.489Z,550.00
2022-11-20T00:13:03.480Z,550.00
2022-11-20T00:13:33.481Z,549.00
2022-11-20T00:14:03.472Z,548.00
2022-11-20T00:14:33.467Z,548.00
2022-11-20T00:15:03.580Z,549.00
2022-11-20T00:15:33.711Z,550.00
2022-11-20T00:16:03.706Z,549.00
2022-11-20T00:16:33.716Z,548.00
2022-11-20T00:17:03.820Z,548.00
2022-11-20T00:17:33.816Z,549.00
2022-11-20T00:18:03.937Z,550.00
2022-11-20T00:18:34.046Z,549.00
2022-11-20T00:19:04.049Z,551.00
2022-11-20T00:19:34.038Z,551.00
2022-11-20T00:20:04.165Z,551.00
2022-11-20T00:20:34.171Z,553.00
2022-11-20T00:21:04.166Z,552.00
2022-11-20T00:21:34.283Z,552.00
2022-11-20T00:22:04.280Z,552.00
2022-11-20T00:22:34.397Z,552.00
2022-11-20T00:23:04.514Z,550.00
2022-11-20T00:23:34.510Z,548.00
2022-11-20T00:24:04.507Z,548.00
2022-11-20T00:24:38.853Z,546.00
2022-11-20T00:25:04.665Z,546.00
2022-11-20T00:25:34.809Z,545.00
2022-11-20T00:26:04.801Z,547.00
2022-11-20T00:26:34.927Z,547.00
2022-11-20T00:27:04.908Z,547.00
2022-11-20T00:27:34.901Z,547.00
2022-11-20T00:28:04.897Z,546.00
2022-11-20T00:28:35.013Z,547.00
2022-11-20T00:29:05.014Z,546.00
2022-11-20T00:29:35.010Z,545.00
2022-11-20T00:30:05.009Z,544.00
2022-11-20T00:30:35.014Z,543.00
2022-11-20T00:31:05.017Z,543.00
2022-11-20T00:31:35.139Z,544.00
2022-11-20T00:32:05.132Z,543.00
2022-11-20T00:32:35.133Z,543.00
2022-11-20T00:33:05.244Z,543.00
2022-11-20T00:33:35.358Z,542.00
2022-11-20T00:34:05.357Z,541.00
2022-11-20T00:34:35.354Z,542.00
2022-11-20T00:35:05.352Z,542.00
2022-11-20T00:35:35.348Z,544.00
2022-11-20T00:36:05.343Z,543.00
2022-11-20T00:36:35.464Z,543.00
2022-11-20T00:37:05.457Z,544.00
2022-11-20T00:37:35.453Z,544.00
2022-11-20T00:38:05.568Z,546.00
2022-11-20T00:38:35.569Z,544.00
2022-11-20T00:39:05.562Z,543.00
2022-11-20T00:39:35.684Z,543.00
2022-11-20T00:40:05.684Z,543.00
2022-11-20T00:40:35.695Z,541.00
2022-11-20T00:41:05.797Z,541.00
2022-11-20T00:41:35.796Z,540.00
2022-11-20T00:42:05.786Z,542.00
2022-11-20T00:42:35.906Z,541.00
2022-11-20T00:43:05.898Z,540.00
2022-11-20T00:43:36.012Z,541.00
2022-11-20T00:44:06.008Z,540.00
2022-11-20T00:44:36.126Z,539.00
2022-11-20T00:45:06.119Z,539.00
2022-11-20T00:45:36.235Z,538.00
2022-11-20T00:46:06.316Z,539.00
2022-11-20T00:46:36.308Z,540.00
2022-11-20T00:47:06.307Z,540.00
2022-11-20T00:47:36.430Z,539.00
2022-11-20T00:48:06.540Z,539.00
2022-11-20T00:48:36.541Z,536.00
2022-11-20T00:49:06.540Z,536.00
2022-11-20T00:49:36.653Z,535.00
2022-11-20T00:50:06.770Z,536.00
2022-11-20T00:50:36.774Z,537.00
2022-11-20T00:51:07.015Z,538.00
2022-11-20T00:51:36.892Z,540.00
2022-11-20T00:52:07.017Z,540.00
2022-11-20T00:52:37.005Z,540.00
2022-11-20T00:53:07.126Z,540.00
2022-11-20T00:53:37.119Z,540.00
2022-11-20T00:54:07.237Z,540.00
2022-11-20T00:54:37.347Z,540.00
2022-11-20T00:55:07.426Z,539.00
2022-11-20T00:55:37.509Z,538.00
2022-11-20T00:56:07.627Z,538.00
2022-11-20T00:56:37.683Z,539.00
2022-11-20T00:57:07.770Z,539.00
2022-11-20T00:57:37.844Z,540.00
2022-11-20T00:58:12.993Z,540.00
2022-11-20T00:58:38.043Z,542.00
2022-11-20T00:59:08.119Z,542.00
2022-11-20T00:59:38.201Z,541.00
2022-11-20T01:00:08.285Z,540.00
2022-11-20T01:00:38.476Z,541.00
2022-11-20T01:01:09.566Z,541.00
2022-11-20T01:01:38.585Z,540.00
2022-11-20T01:02:08.527Z,542.00
2022-11-20T01:02:38.614Z,544.00
2022-11-20T01:03:08.689Z,546.00
2022-11-20T01:03:38.769Z,546.00
2022-11-20T01:04:08.857Z,546.00
2022-11-20T01:04:38.946Z,545.00
2022-11-20T01:05:09.067Z,546.00
2022-11-20T01:05:39.180Z,546.00
2022-11-20T01:06:09.188Z,545.00
2022-11-20T01:06:39.178Z,545.00
2022-11-20T01:07:09.270Z,544.00
2022-11-20T01:07:39.309Z,544.00
2022-11-20T01:08:09.281Z,542.00
2022-11-20T01:08:39.398Z,541.00
2022-11-20T01:09:09.395Z,541.00
2022-11-20T01:09:39.388Z,541.00
2022-11-20T01:10:09.392Z,542.00
2022-11-20T01:10:39.388Z,543.00
2022-11-20T01:11:09.524Z,544.00
2022-11-20T01:11:39.556Z,544.00
2022-11-20T01:12:09.528Z,543.00
2022-11-20T01:12:39.642Z,544.00
2022-11-20T01:13:09.643Z,545.00
2022-11-20T01:13:39.638Z,545.00
2022-11-20T01:14:09.754Z,547.00
2022-11-20T01:14:39.868Z,548.00
2022-11-20T01:15:09.862Z,547.00
2022-11-20T01:15:39.857Z,547.00
2022-11-20T01:16:10.000Z,547.00
2022-11-20T01:16:39.996Z,546.00
2022-11-20T01:17:09.995Z,546.00
2022-11-20T01:17:40.107Z,546.00
2022-11-20T01:18:10.112Z,544.00
2022-11-20T01:18:40.226Z,543.00
2022-11-20T01:19:10.348Z,540.00
2022-11-20T01:19:40.462Z,540.00
2022-11-20T01:20:10.583Z,540.00
2022-11-20T01:20:40.692Z,540.00
2022-11-20T01:21:10.711Z,541.00
2022-11-20T01:21:40.715Z,541.00
2022-11-20T01:22:10.826Z,542.00
2022-11-20T01:22:40.812Z,542.00
2022-11-20T01:23:10.936Z,542.00
2022-11-20T01:23:40.933Z,541.00
2022-11-20T01:24:11.047Z,541.00
2022-11-20T01:24:41.044Z,541.00
2022-11-20T01:25:11.069Z,541.00
2022-11-20T01:25:41.063Z,541.00
2022-11-20T01:26:11.126Z,540.00
2022-11-20T01:26:41.121Z,540.00
2022-11-20T01:27:11.114Z,541.00
2022-11-20T01:27:41.107Z,543.00
2022-11-20T01:28:11.222Z,544.00
2022-11-20T01:28:41.219Z,543.00
2022-11-20T01:29:11.339Z,542.00
2022-11-20T01:29:41.334Z,541.00
2022-11-20T01:30:11.327Z,542.00
2022-11-20T01:30:41.321Z,540.00
2022-11-20T01:31:11.451Z,540.00
2022-11-20T01:31:41.447Z,540.00
2022-11-20T01:32:11.440Z,539.00
2022-11-20T01:32:41.556Z,539.00
2022-11-20T01:33:11.567Z,537.00
2022-11-20T01:33:41.555Z,536.00
2022-11-20T01:34:11.678Z,538.00
2022-11-20T01:34:41.673Z,540.00
2022-11-20T01:35:11.793Z,540.00
2022-11-20T01:35:41.910Z,540.00
2022-11-20T01:36:11.924Z,539.00
2022-11-20T01:36:41.913Z,538.00
2022-11-20T01:37:11.910Z,535.00
2022-11-20T01:37:41.906Z,535.00
2022-11-20T01:38:12.025Z,535.00
2022-11-20T01:38:42.025Z,534.00
2022-11-20T01:39:12.023Z,533.00
2022-11-20T01:39:42.021Z,535.00
2022-11-20T01:40:12.019Z,536.00
2022-11-20T01:40:42.019Z,536.00
2022-11-20T01:41:12.148Z,538.00
2022-11-20T01:41:42.140Z,540.00
2022-11-20T01:42:12.261Z,542.00
2022-11-20T01:42:42.258Z,544.00
2022-11-20T01:43:12.257Z,543.00
2022-11-20T01:43:42.373Z,542.00
2022-11-20T01:44:12.369Z,540.00
2022-11-20T01:44:42.365Z,538.00
2022-11-20T01:45:12.482Z,539.00
2022-11-20T01:45:42.478Z,540.00
2022-11-20T01:46:12.500Z,540.00
2022-11-20T01:46:42.491Z,539.00
2022-11-20T01:47:12.489Z,540.00
2022-11-20T01:47:42.606Z,540.00
2022-11-20T01:48:12.729Z,541.00
2022-11-20T01:48:42.721Z,540.00
2022-11-20T01:49:12.840Z,539.00
2022-11-20T01:49:42.961Z,540.00
2022-11-20T01:50:12.956Z,540.00
2022-11-20T01:50:43.073Z,542.00
2022-11-20T01:51:13.092Z,542.00
2022-11-20T01:51:43.095Z,542.00
2022-11-20T01:52:13.207Z,541.00
2022-11-20T01:52:43.203Z,541.00
2022-11-20T01:53:13.325Z,540.00
2022-11-20T01:53:43.437Z,540.00
2022-11-20T01:54:13.438Z,539.00
2022-11-20T01:54:43.546Z,541.00
2022-11-20T01:55:13.639Z,543.00
2022-11-20T01:55:43.713Z,543.00
2022-11-20T01:56:13.863Z,543.00
2022-11-20T01:56:43.842Z,544.00
2022-11-20T01:57:13.919Z,546.00
2022-11-20T01:57:44.004Z,545.00
2022-11-20T01:58:14.088Z,546.00
2022-11-20T01:58:44.164Z,544.00
2022-11-20T01:59:14.252Z,543.00
2022-11-20T01:59:44.342Z,542.00
2022-11-20T02:00:14.427Z,542.00
2022-11-20T02:00:44.513Z,541.00
2022-11-20T02:01:14.767Z,540.00
2022-11-20T02:01:44.619Z,538.00
2022-11-20T02:02:14.683Z,538.00
2022-11-20T02:02:44.767Z,538.00
2022-11-20T02:03:14.843Z,539.00
2022-11-20T02:03:44.928Z,538.00
2022-11-20T02:04:15.020Z,539.00
2022-11-20T02:04:45.121Z,537.00
2022-11-20T02:05:15.237Z,537.00
2022-11-20T02:05:45.230Z,537.00
2022-11-20T02:06:15.233Z,537.00
2022-11-20T02:06:45.346Z,536.00
2022-11-20T02:07:15.376Z,538.00
2022-11-20T02:07:45.349Z,538.00
2022-11-20T02:08:15.467Z,539.00
2022-11-20T02:08:45.588Z,539.00
2022-11-20T02:09:15.704Z,539.00
2022-11-20T02:09:45.701Z,540.00
2022-11-20T02:10:15.697Z,538.00
2022-11-20T02:10:45.691Z,538.00
2022-11-20T02:11:15.817Z,538.00
2022-11-20T02:11:45.807Z,538.00
2022-11-20T02:12:15.803Z,538.00
2022-11-20T02:12:45.795Z,538.00
2022-11-20T02:13:15.911Z,537.00
2022-11-20T02:13:45.907Z,537.00
2022-11-20T02:14:16.029Z,536.00
2022-11-20T02:14:46.147Z,537.00
2022-11-20T02:15:16.147Z,537.00
2022-11-20T02:15:46.140Z,539.00
2022-11-20T02:16:16.268Z,537.00
2022-11-20T02:16:46.257Z,537.00
2022-11-20T02:17:16.251Z,539.00
2022-11-20T02:17:46.369Z,539.00
2022-11-20T02:18:16.363Z,538.00
2022-11-20T02:18:46.364Z,538.00
2022-11-20T02:19:16.484Z,539.00
2022-11-20T02:19:46.485Z,539.00
2022-11-20T02:20:16.480Z,538.00
2022-11-20T02:20:46.603Z,539.00
2022-11-20T02:21:16.725Z,539.00
2022-11-20T02:21:46.720Z,539.00
2022-11-20T02:22:16.842Z,539.00
2022-11-20T02:22:46.952Z,541.00
2022-11-20T02:23:16.951Z,541.00
2022-11-20T02:23:46.954Z,541.00
2022-11-20T02:24:16.945Z,541.00
2022-11-20T02:24:46.940Z,540.00
2022-11-20T02:25:17.061Z,541.00
2022-11-20T02:25:47.175Z,541.00
2022-11-20T02:26:17.192Z,540.00
2022-11-20T02:26:47.186Z,543.00
2022-11-20T02:27:17.304Z,543.00
2022-11-20T02:27:47.365Z,543.00
2022-11-20T02:28:17.360Z,543.00
2022-11-20T02:28:47.478Z,542.00
2022-11-20T02:29:17.575Z,540.00
2022-11-20T02:29:47.482Z,540.00
2022-11-20T02:30:17.604Z,538.00
2022-11-20T02:30:47.597Z,538.00
2022-11-20T02:31:17.616Z,538.00
2022-11-20T02:31:47.606Z,538.00
2022-11-20T02:32:17.603Z,539.00
2022-11-20T02:32:47.603Z,541.00
2022-11-20T02:33:17.723Z,540.00
2022-11-20T02:33:47.839Z,539.00
2022-11-20T02:34:17.834Z,540.00
2022-11-20T02:34:47.829Z,540.00
2022-11-20T02:35:17.822Z,540.00
2022-11-20T02:35:47.819Z,538.00
2022-11-20T02:36:17.965Z,537.00
2022-11-20T02:36:47.953Z,536.00
2022-11-20T02:37:17.948Z,536.00
2022-11-20T02:37:48.071Z,537.00
2022-11-20T02:38:18.180Z,538.00
2022-11-20T02:38:48.180Z,538.00
2022-11-20T02:39:18.570Z,539.00
2022-11-20T02:39:48.333Z,541.00
2022-11-20T02:40:18.451Z,541.00
2022-11-20T02:40:52.688Z,541.00
2022-11-20T02:41:18.499Z,540.00
2022-11-20T02:41:48.488Z,540.00
2022-11-20T02:42:18.491Z,540.00
2022-11-20T02:42:48.601Z,542.00
2022-11-20T02:43:18.602Z,542.00
2022-11-20T02:43:48.594Z,544.00
2022-11-20T02:44:18.714Z,542.00
2022-11-20T02:44:48.706Z,542.00
2022-11-20T02:45:18.701Z,542.00
2022-11-20T02:45:48.822Z,544.00
2022-11-20T02:46:18.959Z,542.00
2022-11-20T02:46:48.952Z,543.00
2022-11-20T02:47:19.068Z,545.00
2022-11-20T02:47:49.187Z,545.00
2022-11-20T02:48:19.187Z,545.00
2022-11-20T02:48:49.180Z,545.00
2022-11-20T02:49:19.775Z,545.00
2022-11-20T02:49:49.299Z,545.00
2022-11-20T02:50:19.419Z,547.00
2022-11-20T02:50:49.413Z,546.00
2022-11-20T02:51:19.489Z,546.00
2022-11-20T02:51:49.453Z,547.00
2022-11-20T02:52:19.575Z,546.00
2022-11-20T02:52:49.570Z,546.00
2022-11-20T02:53:19.703Z,545.00
2022-11-20T02:53:49.683Z,543.00
2022-11-20T02:54:19.806Z,543.00
2022-11-20T02:54:49.893Z,542.00
2022-11-20T02:55:19.970Z,542.00
2022-11-20T02:55:50.050Z,541.00
2022-11-20T02:56:20.160Z,540.00
2022-11-20T02:56:50.243Z,542.00
2022-11-20T02:57:20.316Z,540.00
2022-11-20T02:57:50.404Z,540.00
2022-11-20T02:58:20.486Z,540.00
2022-11-20T02:58:50.565Z,540.00
2022-11-20T02:59:20.979Z,539.00
2022-11-20T02:59:50.643Z,538.00
2022-11-20T03:00:20.734Z,538.00
2022-11-20T03:00:50.815Z,536.00
2022-11-20T03:01:20.970Z,536.00
2022-11-20T03:01:50.916Z,535.00
2022-11-20T03:02:21.002Z,533.00
2022-11-20T03:02:51.084Z,533.00
2022-11-20T03:03:21.163Z,532.00
2022-11-20T03:03:51.243Z,531.00
2022-11-20T03:04:21.331Z,531.00
2022-11-20T03:04:51.436Z,530.00
2022-11-20T03:05:21.562Z,530.00
2022-11-20T03:05:51.551Z,531.00
2022-11-20T03:06:21.597Z,531.00
2022-11-20T03:06:51.575Z,533.00
2022-11-20T03:07:21.777Z,534.00
2022-11-20T03:07:51.773Z,533.00
2022-11-20T03:08:21.892Z,535.00
2022-11-20T03:08:52.008Z,536.00
2022-11-20T03:09:22.384Z,537.00
2022-11-20T03:09:52.238Z,539.00
2022-11-20T03:10:22.353Z,540.00
2022-11-20T03:10:52.470Z,539.00
2022-11-20T03:11:22.601Z,539.00
2022-11-20T03:11:52.593Z,538.00
2022-11-20T03:12:22.712Z,538.00
2022-11-20T03:12:52.704Z,537.00
2022-11-20T03:13:22.821Z,536.00
2022-11-20T03:13:52.934Z,536.00
2022-11-20T03:14:22.931Z,536.00
2022-11-20T03:14:53.551Z,536.00
2022-11-20T03:15:23.055Z,535.00
2022-11-20T03:15:53.056Z,535.00
2022-11-20T03:16:23.049Z,537.00
2022-11-20T03:16:53.173Z,537.00
2022-11-20T03:17:23.165Z,537.00
2022-11-20T03:17:53.283Z,537.00
2022-11-20T03:18:23.278Z,536.00
2022-11-20T03:18:53.277Z,536.00
2022-11-20T03:19:23.776Z,535.00
2022-11-20T03:19:53.472Z,535.00
2022-11-20T03:20:23.467Z,537.00
2022-11-20T03:20:53.594Z,540.00
2022-11-20T03:21:23.589Z,541.00
2022-11-20T03:21:53.580Z,542.00
2022-11-20T03:22:23.573Z,538.00
2022-11-20T03:22:53.688Z,538.00
2022-11-20T03:23:23.679Z,536.00
2022-11-20T03:23:53.674Z,535.00
2022-11-20T03:24:23.789Z,535.00
2022-11-20T03:24:53.906Z,535.00
2022-11-20T03:25:23.909Z,536.00
2022-11-20T03:25:54.028Z,538.00
2022-11-20T03:26:24.021Z,537.00
2022-11-20T03:26:54.020Z,537.00
2022-11-20T03:27:24.009Z,536.00
2022-11-20T03:27:54.134Z,535.00
2022-11-20T03:28:24.132Z,536.00
2022-11-20T03:28:54.127Z,535.00
2022-11-20T03:29:24.120Z,534.00
2022-11-20T03:29:54.238Z,536.00
2022-11-20T03:30:29.234Z,535.00
2022-11-20T03:30:54.250Z,534.00
2022-11-20T03:31:24.255Z,534.00
2022-11-20T03:31:54.250Z,534.00
2022-11-20T03:32:24.241Z,533.00
2022-11-20T03:32:54.359Z,534.00
2022-11-20T03:33:24.488Z,533.00
2022-11-20T03:33:54.488Z,532.00
2022-11-20T03:34:24.475Z,531.00
2022-11-20T03:34:54.483Z,532.00
2022-11-20T03:35:24.473Z,531.00
2022-11-20T03:35:54.473Z,532.00
2022-11-20T03:36:24.469Z,532.00
2022-11-20T03:36:54.471Z,534.00
2022-11-20T03:37:24.465Z,533.00
2022-11-20T03:37:54.583Z,534.00
2022-11-20T03:38:24.581Z,534.00
2022-11-20T03:38:54.696Z,535.00
2022-11-20T03:39:24.834Z,533.00
2022-11-20T03:39:54.817Z,535.00
2022-11-20T03:40:24.928Z,536.00
2022-11-20T03:40:55.049Z,536.00
2022-11-20T03:41:25.045Z,535.00
2022-11-20T03:41:55.049Z,535.00
2022-11-20T03:42:25.043Z,534.00
2022-11-20T03:42:55.041Z,534.00
2022-11-20T03:43:25.038Z,534.00
2022-11-20T03:43:55.042Z,533.00
2022-11-20T03:44:25.040Z,534.00
2022-11-20T03:44:55.106Z,534.00
2022-11-20T03:45:25.097Z,535.00
2022-11-20T03:45:55.218Z,536.00
2022-11-20T03:46:25.209Z,537.00
2022-11-20T03:46:55.336Z,538.00
2022-11-20T03:47:25.329Z,540.00
2022-11-20T03:47:55.324Z,539.00
2022-11-20T03:48:25.328Z,539.00
2022-11-20T03:48:55.450Z,538.00
2022-11-20T03:49:25.565Z,536.00
2022-11-20T03:49:55.557Z,536.00
2022-11-20T03:50:25.674Z,535.00
2022-11-20T03:50:55.681Z,536.00
2022-11-20T03:51:25.671Z,537.00
2022-11-20T03:51:55.794Z,540.00
2022-11-20T03:52:25.789Z,541.00
2022-11-20T03:52:55.786Z,540.00
2022-11-20T03:53:25.783Z,539.00
2022-11-20T03:53:55.896Z,539.00
2022-11-20T03:54:26.009Z,536.00
2022-11-20T03:54:56.104Z,536.00
2022-11-20T03:55:26.182Z,537.00
2022-11-20T03:55:56.264Z,538.00
2022-11-20T03:56:26.346Z,539.00
2022-11-20T03:56:56.431Z,539.00
2022-11-20T03:57:26.512Z,538.00
2022-11-20T03:57:56.599Z,536.00
2022-11-20T03:58:26.677Z,536.00
2022-11-20T03:58:56.760Z,536.00
2022-11-20T03:59:26.845Z,534.00
2022-11-20T03:59:56.926Z,535.00
2022-11-20T04:00:27.005Z,533.00
2022-11-20T04:00:57.084Z,532.00
2022-11-20T04:01:27.239Z,532.00
2022-11-20T04:01:57.287Z,533.00
2022-11-20T04:02:27.214Z,534.00
2022-11-20T04:02:57.306Z,533.00
2022-11-20T04:03:27.386Z,533.00
2022-11-20T04:03:57.469Z,533.00
2022-11-20T04:04:27.555Z,534.00
2022-11-20T04:04:57.674Z,534.00
2022-11-20T04:05:27.663Z,535.00
2022-11-20T04:05:57.666Z,534.00
2022-11-20T04:06:27.663Z,534.00
2022-11-20T04:06:57.821Z,534.00
2022-11-20T04:07:27.887Z,535.00
2022-11-20T04:07:57.846Z,535.00
2022-11-20T04:08:27.960Z,534.00
2022-11-20T04:08:57.959Z,534.00
2022-11-20T04:09:27.957Z,533.00
2022-11-20T04:09:58.076Z,532.00
2022-11-20T04:10:28.072Z,533.00
2022-11-20T04:10:58.193Z,534.00
2022-11-20T04:11:28.306Z,532.00
2022-11-20T04:11:58.313Z,532.00
2022-11-20T04:12:28.315Z,532.00
2022-11-20T04:12:58.430Z,530.00
2022-11-20T04:13:28.423Z,528.00
2022-11-20T04:13:58.418Z,527.00
2022-11-20T04:14:28.534Z,527.00
2022-11-20T04:14:58.653Z,528.00
2022-11-20T04:15:28.771Z,528.00
2022-11-20T04:15:58.892Z,527.00
2022-11-20T04:16:28.883Z,525.00
2022-11-20T04:16:58.898Z,524.00
2022-11-20T04:17:28.887Z,524.00
2022-11-20T04:17:59.011Z,525.00
2022-11-20T04:18:29.001Z,524.00
2022-11-20T04:18:59.130Z,525.00
2022-11-20T04:19:29.233Z,526.00
2022-11-20T04:19:59.232Z,526.00
2022-11-20T04:20:29.224Z,528.00
2022-11-20T04:20:59.343Z,530.00
2022-11-20T04:21:29.339Z,529.00
2022-11-20T04:21:59.457Z,529.00
2022-11-20T04:22:29.462Z,531.00
2022-11-20T04:22:59.454Z,531.00
2022-11-20T04:23:29.445Z,530.00
2022-11-20T04:23:59.564Z,531.00
2022-11-20T04:24:29.562Z,530.00
2022-11-20T04:24:59.555Z,532.00
2022-11-20T04:25:29.671Z,531.00
2022-11-20T04:25:59.668Z,531.00
2022-11-20T04:26:29.662Z,531.00
2022-11-20T04:26:59.778Z,532.00
2022-11-20T04:27:29.775Z,533.00
2022-11-20T04:27:59.771Z,533.00
2022-11-20T04:28:29.883Z,535.00
2022-11-20T04:29:00.005Z,536.00
2022-11-20T04:29:29.995Z,539.00
2022-11-20T04:30:00.110Z,537.00
2022-11-20T04:30:30.109Z,537.00
2022-11-20T04:31:00.227Z,538.00
2022-11-20T04:31:30.347Z,539.00
2022-11-20T04:32:00.344Z,538.00
2022-11-20T04:32:30.345Z,538.00
2022-11-20T04:33:00.475Z,537.00
2022-11-20T04:33:33.975Z,538.00
2022-11-20T04:34:00.613Z,537.00
2022-11-20T04:34:30.728Z,538.00
2022-11-20T04:35:00.871Z,537.00
2022-11-20T04:35:30.868Z,538.00
2022-11-20T04:36:00.872Z,536.00
2022-11-20T04:36:30.867Z,535.00
2022-11-20T04:37:00.869Z,535.00
2022-11-20T04:37:30.864Z,536.00
2022-11-20T04:38:00.858Z,537.00
2022-11-20T04:38:30.854Z,536.00
2022-11-20T04:39:00.975Z,536.00
2022-11-20T04:39:31.092Z,535.00
2022-11-20T04:40:01.090Z,535.00
2022-11-20T04:40:31.083Z,538.00
2022-11-20T04:41:01.088Z,536.00
2022-11-20T04:41:31.080Z,538.00
2022-11-20T04:42:01.197Z,537.00
2022-11-20T04:42:31.231Z,538.00
2022-11-20T04:43:01.204Z,536.00
2022-11-20T04:43:31.318Z,536.00
2022-11-20T04:44:01.435Z,535.00
2022-11-20T04:44:31.430Z,535.00
2022-11-20T04:45:01.432Z,537.00
2022-11-20T04:45:31.549Z,536.00
2022-11-20T04:46:01.553Z,537.00
2022-11-20T04:46:31.666Z,538.00
2022-11-20T04:47:01.788Z,538.00
2022-11-20T04:47:31.784Z,537.00
2022-11-20T04:48:01.776Z,536.00
2022-11-20T04:48:31.894Z,536.00
2022-11-20T04:49:01.892Z,536.00
2022-11-20T04:49:31.935Z,536.00
2022-11-20T04:50:02.009Z,538.00
2022-11-20T04:50:31.988Z,540.00
2022-11-20T04:51:02.114Z,540.00
2022-11-20T04:51:32.102Z,540.00
2022-11-20T04:52:02.225Z,539.00
2022-11-20T04:52:32.228Z,538.00
2022-11-20T04:53:02.228Z,538.00
2022-11-20T04:53:32.342Z,535.00
2022-11-20T04:54:02.345Z,534.00
2022-11-20T04:54:32.450Z,536.00
2022-11-20T04:55:02.533Z,535.00
2022-11-20T04:55:32.613Z,535.00
2022-11-20T04:56:02.696Z,535.00
2022-11-20T04:56:32.785Z,535.00
2022-11-20T04:57:02.870Z,536.00
2022-11-20T04:57:32.950Z,537.00
2022-11-20T04:58:03.037Z,538.00
2022-11-20T04:58:33.122Z,537.00
2022-11-20T04:59:03.203Z,538.00
2022-11-20T04:59:33.298Z,535.00
2022-11-20T05:00:03.337Z,536.00
2022-11-20T05:00:33.377Z,536.00
2022-11-20T05:01:03.504Z,537.00
2022-11-20T05:01:33.744Z,537.00
2022-11-20T05:02:03.701Z,537.00
2022-11-20T05:02:33.635Z,537.00
2022-11-20T05:03:03.720Z,538.00
2022-11-20T05:03:36.341Z,538.00
2022-11-20T05:04:03.908Z,538.00
2022-11-20T05:04:34.007Z,536.00
2022-11-20T05:05:04.007Z,534.00
2022-11-20T05:05:34.002Z,533.00
2022-11-20T05:06:04.009Z,535.00
2022-11-20T05:06:34.032Z,536.00
2022-11-20T05:07:04.064Z,538.00
2022-11-20T05:07:34.194Z,538.00
2022-11-20T05:08:04.096Z,539.00
2022-11-20T05:08:34.211Z,540.00
2022-11-20T05:09:04.215Z,539.00
2022-11-20T05:09:34.209Z,537.00
2022-11-20T05:10:04.327Z,535.00
2022-11-20T05:10:34.332Z,535.00
2022-11-20T05:11:04.332Z,535.00
2022-11-20T05:11:34.325Z,536.00
2022-11-20T05:12:04.327Z,536.00
2022-11-20T05:12:34.465Z,537.00
2022-11-20T05:13:04.489Z,540.00
2022-11-20T05:13:34.507Z,539.00
2022-11-20T05:14:04.615Z,538.00
2022-11-20T05:14:34.688Z,539.00
2022-11-20T05:15:04.743Z,538.00
2022-11-20T05:15:34.806Z,536.00
2022-11-20T05:16:04.814Z,534.00
2022-11-20T05:16:34.923Z,535.00
2022-11-20T05:17:05.041Z,535.00
2022-11-20T05:17:35.102Z,536.00
2022-11-20T05:18:05.102Z,536.00
2022-11-20T05:18:35.094Z,536.00
2022-11-20T05:19:05.206Z,536.00
2022-11-20T05:19:35.201Z,536.00
2022-11-20T05:20:05.197Z,537.00
2022-11-20T05:20:35.192Z,537.00
2022-11-20T05:21:05.198Z,537.00
2022-11-20T05:21:35.187Z,535.00
2022-11-20T05:22:05.180Z,532.00
2022-11-20T05:22:35.301Z,531.00
2022-11-20T05:23:05.422Z,531.00
2022-11-20T05:23:35.426Z,531.00
2022-11-20T05:24:05.537Z,531.00
2022-11-20T05:24:35.653Z,533.00
2022-11-20T05:25:05.775Z,533.00
2022-11-20T05:25:35.769Z,534.00
2022-11-20T05:26:05.770Z,533.00
2022-11-20T05:26:35.764Z,533.00
2022-11-20T05:27:05.761Z,533.00
2022-11-20T05:27:35.876Z,533.00
2022-11-20T05:28:05.871Z,533.00
2022-11-20T05:28:35.878Z,535.00
2022-11-20T05:29:05.858Z,533.00
2022-11-20T05:29:35.853Z,534.00
2022-11-20T05:30:05.845Z,534.00
2022-11-20T05:30:35.968Z,534.00
2022-11-20T05:31:05.969Z,536.00
2022-11-20T05:31:35.963Z,538.00
2022-11-20T05:32:05.955Z,538.00
2022-11-20T05:32:35.955Z,540.00
2022-11-20T05:33:05.953Z,543.00
2022-11-20T05:33:35.947Z,542.00
2022-11-20T05:34:05.940Z,542.00
2022-11-20T05:34:36.057Z,542.00
2022-11-20T05:35:06.052Z,543.00
2022-11-20T05:35:36.174Z,543.00
2022-11-20T05:36:06.293Z,544.00
2022-11-20T05:36:36.284Z,543.00
2022-11-20T05:37:06.285Z,542.00
2022-11-20T05:37:36.277Z,541.00
2022-11-20T05:38:06.274Z,541.00
2022-11-20T05:38:36.404Z,540.00
2022-11-20T05:39:06.388Z,541.00
2022-11-20T05:39:36.388Z,542.00
2022-11-20T05:40:06.386Z,543.00
2022-11-20T05:40:36.501Z,543.00
2022-11-20T05:41:06.498Z,544.00
2022-11-20T05:41:36.625Z,544.00
2022-11-20T05:42:06.629Z,543.00
2022-11-20T05:42:36.617Z,542.00
2022-11-20T05:43:06.736Z,543.00
2022-11-20T05:43:36.726Z,544.00
2022-11-20T05:44:06.721Z,544.00
2022-11-20T05:44:36.837Z,544.00
2022-11-20T05:45:06.829Z,544.00
2022-11-20T05:45:36.955Z,543.00
2022-11-20T05:46:07.068Z,543.00
2022-11-20T05:46:37.186Z,543.00
2022-11-20T05:47:07.183Z,542.00
2022-11-20T05:47:37.297Z,542.00
2022-11-20T05:48:07.414Z,540.00
2022-11-20T05:48:37.418Z,538.00
2022-11-20T05:49:07.415Z,537.00
2022-11-20T05:49:37.535Z,537.00
2022-11-20T05:50:07.655Z,536.00
2022-11-20T05:50:37.767Z,535.00
2022-11-20T05:51:07.761Z,536.00
2022-11-20T05:51:37.753Z,537.00
2022-11-20T05:52:07.895Z,538.00
2022-11-20T05:52:37.887Z,540.00
2022-11-20T05:53:07.883Z,538.00
2022-11-20T05:53:38.006Z,538.00
2022-11-20T05:54:08.120Z,537.00
2022-11-20T05:54:38.222Z,536.00
2022-11-20T05:55:08.306Z,536.00
2022-11-20T05:55:38.379Z,533.00
2022-11-20T05:56:08.475Z,532.00
2022-11-20T05:56:38.530Z,533.00
2022-11-20T05:57:08.606Z,532.00
2022-11-20T05:57:38.688Z,533.00
2022-11-20T05:58:08.769Z,534.00
2022-11-20T05:58:38.856Z,534.00
2022-11-20T05:59:08.923Z,533.00
2022-11-20T05:59:39.008Z,533.00
2022-11-20T06:00:09.037Z,532.00
2022-11-20T06:00:39.138Z,532.00
2022-11-20T06:01:09.217Z,533.00
2022-11-20T06:01:39.296Z,533.00
2022-11-20T06:02:09.376Z,534.00
2022-11-20T06:02:39.509Z,534.00
2022-11-20T06:03:09.537Z,533.00
2022-11-20T06:03:39.614Z,532.00
2022-11-20T06:04:09.696Z,532.00
2022-11-20T06:04:39.789Z,534.00
2022-11-20T06:05:09.874Z,536.00
2022-11-20T06:05:39.881Z,536.00
2022-11-20T06:06:09.877Z,534.00
2022-11-20T06:06:39.992Z,534.00
2022-11-20T06:07:10.054Z,534.00
2022-11-20T06:07:40.142Z,534.00
2022-11-20T06:08:10.121Z,536.00
2022-11-20T06:08:40.239Z,536.00
2022-11-20T06:09:10.240Z,535.00
2022-11-20T06:09:40.358Z,535.00
2022-11-20T06:10:10.353Z,534.00
2022-11-20T06:10:40.481Z,533.00
2022-11-20T06:11:10.476Z,534.00
2022-11-20T06:11:40.599Z,534.00
2022-11-20T06:12:10.593Z,534.00
2022-11-20T06:12:40.589Z,534.00
2022-11-20T06:13:10.728Z,533.00
2022-11-20T06:13:42.028Z,533.00
2022-11-20T06:14:10.763Z,533.00
2022-11-20T06:14:40.892Z,533.00